sensor_id;sensor_type;location;lat;lon;timestamp;pressure;altitude;pressure_sealevel;temperature;humidity
69780;BME280;57052;55.602;38.096;2023-04-07T00:01:29;101212.75;;;7.70;40.52
69780;BME280;57052;55.602;38.096;2023-04-07T00:03:54;101204.91;;;7.69;40.34
69780;BME280;57052;55.602;38.096;2023-04-07T00:06:20;101215.06;;;7.67;41.26
69780;BME280;57052;55.602;38.096;2023-04-07T00:08:45;101195.72;;;7.58;40.89
69780;BME280;57052;55.602;38.096;2023-04-07T00:11:11;101197.81;;;7.56;40.50
69780;BME280;57052;55.602;38.096;2023-04-07T00:13:37;101198.03;;;7.55;40.79
69780;BME280;57052;55.602;38.096;2023-04-07T00:16:02;101211.28;;;7.56;40.77
69780;BME280;57052;55.602;38.096;2023-04-07T00:18:28;101193.41;;;7.44;40.63
69780;BME280;57052;55.602;38.096;2023-04-07T00:20:53;101206.88;;;7.44;40.35
69780;BME280;57052;55.602;38.096;2023-04-07T00:23:19;101214.97;;;7.44;41.22
69780;BME280;57052;55.602;38.096;2023-04-07T00:25:47;101170.16;;;7.13;41.66
69780;BME280;57052;55.602;38.096;2023-04-07T00:28:12;101195.88;;;7.27;41.03
69780;BME280;57052;55.602;38.096;2023-04-07T00:30:38;101195.03;;;7.27;41.50
69780;BME280;57052;55.602;38.096;2023-04-07T00:33:03;101210.75;;;7.30;40.91
69780;BME280;57052;55.602;38.096;2023-04-07T00:35:29;101213.88;;;7.27;41.10
69780;BME280;57052;55.602;38.096;2023-04-07T00:37:54;101205.50;;;7.17;41.29
69780;BME280;57052;55.602;38.096;2023-04-07T00:40:20;101212.31;;;7.19;41.12
69780;BME280;57052;55.602;38.096;2023-04-07T00:42:45;101205.00;;;7.08;41.27
69780;BME280;57052;55.602;38.096;2023-04-07T00:45:11;101213.22;;;7.13;41.19
69780;BME280;57052;55.602;38.096;2023-04-07T00:47:37;101210.38;;;7.08;41.64
69780;BME280;57052;55.602;38.096;2023-04-07T00:50:03;101210.38;;;7.08;41.53
69780;BME280;57052;55.602;38.096;2023-04-07T00:52:31;101206.25;;;7.05;42.18
69780;BME280;57052;55.602;38.096;2023-04-07T00:54:58;101205.44;;;7.05;41.67
69780;BME280;57052;55.602;38.096;2023-04-07T00:57:24;101209.38;;;7.02;42.42
69780;BME280;57052;55.602;38.096;2023-04-07T00:59:51;101211.66;;;7.05;41.79
69780;BME280;57052;55.602;38.096;2023-04-07T01:02:21;101215.59;;;7.03;42.03
69780;BME280;57052;55.602;38.096;2023-04-07T01:10:29;101208.91;;;6.87;41.95
69780;BME280;57052;55.602;38.096;2023-04-07T01:13:35;101216.63;;;6.84;42.55
69780;BME280;57052;55.602;38.096;2023-04-07T01:15:54;101223.47;;;6.80;42.34
69780;BME280;57052;55.602;38.096;2023-04-07T01:18:26;101220.63;;;6.75;42.83
69780;BME280;57052;55.602;38.096;2023-04-07T01:21:03;101225.41;;;6.73;42.49
69780;BME280;57052;55.602;38.096;2023-04-07T01:26:30;101219.47;;;6.64;43.18
69780;BME280;57052;55.602;38.096;2023-04-07T01:31:58;101207.28;;;6.62;42.44
69780;BME280;57052;55.602;38.096;2023-04-07T01:34:25;101217.41;;;6.66;42.75
69780;BME280;57052;55.602;38.096;2023-04-07T01:36:53;101214.72;;;6.66;43.36
69780;BME280;57052;55.602;38.096;2023-04-07T01:39:20;101217.59;;;6.65;42.54
69780;BME280;57052;55.602;38.096;2023-04-07T01:41:46;101224.03;;;6.64;42.45
69780;BME280;57052;55.602;38.096;2023-04-07T01:44:13;101224.47;;;6.61;42.54
69780;BME280;57052;55.602;38.096;2023-04-07T01:46:39;101205.31;;;6.51;43.14
69780;BME280;57052;55.602;38.096;2023-04-07T01:49:05;101219.97;;;6.55;42.98
69780;BME280;57052;55.602;38.096;2023-04-07T01:51:32;101218.75;;;6.51;42.73
69780;BME280;57052;55.602;38.096;2023-04-07T01:54:00;101216.50;;;6.47;42.85
69780;BME280;57052;55.602;38.096;2023-04-07T01:56:26;101213.41;;;6.44;43.13
69780;BME280;57052;55.602;38.096;2023-04-07T01:58:52;101209.34;;;6.35;43.00
69780;BME280;57052;55.602;38.096;2023-04-07T02:01:17;101218.84;;;6.37;42.95
69780;BME280;57052;55.602;38.096;2023-04-07T02:03:51;101220.34;;;6.33;43.73
69780;BME280;57052;55.602;38.096;2023-04-07T02:06:22;101225.31;;;6.30;43.06
69780;BME280;57052;55.602;38.096;2023-04-07T02:08:54;101224.72;;;6.28;43.71
69780;BME280;57052;55.602;38.096;2023-04-07T02:11:23;101233.44;;;6.23;43.47
69780;BME280;57052;55.602;38.096;2023-04-07T02:13:52;101227.44;;;6.21;43.32
69780;BME280;57052;55.602;38.096;2023-04-07T02:16:40;101231.59;;;6.17;43.45
69780;BME280;57052;55.602;38.096;2023-04-07T02:19:07;101229.34;;;6.14;43.30
69780;BME280;57052;55.602;38.096;2023-04-07T02:21:33;101232.25;;;6.13;43.26
69780;BME280;57052;55.602;38.096;2023-04-07T02:24:10;101211.47;;;5.95;44.23
69780;BME280;57052;55.602;38.096;2023-04-07T02:26:36;101232.50;;;6.05;43.57
69780;BME280;57052;55.602;38.096;2023-04-07T02:29:04;101233.75;;;6.02;43.56
69780;BME280;57052;55.602;38.096;2023-04-07T02:31:30;101227.78;;;6.00;43.83
69780;BME280;57052;55.602;38.096;2023-04-07T02:33:56;101231.72;;;5.98;44.28
69780;BME280;57052;55.602;38.096;2023-04-07T02:36:22;101230.28;;;5.95;43.94
69780;BME280;57052;55.602;38.096;2023-04-07T02:38:47;101221.44;;;5.88;44.09
69780;BME280;57052;55.602;38.096;2023-04-07T02:41:13;101226.59;;;5.90;43.71
69780;BME280;57052;55.602;38.096;2023-04-07T02:43:39;101236.28;;;5.84;43.94
69780;BME280;57052;55.602;38.096;2023-04-07T02:46:04;101227.44;;;5.77;43.76
69780;BME280;57052;55.602;38.096;2023-04-07T02:48:30;101234.25;;;5.79;44.47
69780;BME280;57052;55.602;38.096;2023-04-07T02:50:55;101236.31;;;5.77;44.23
69780;BME280;57052;55.602;38.096;2023-04-07T02:53:21;101234.28;;;5.73;44.38
69780;BME280;57052;55.602;38.096;2023-04-07T02:55:47;101251.44;;;5.72;44.30
69780;BME280;57052;55.602;38.096;2023-04-07T02:58:12;101239.91;;;5.65;44.62
69780;BME280;57052;55.602;38.096;2023-04-07T03:00:38;101211.06;;;5.41;44.56
69780;BME280;57052;55.602;38.096;2023-04-07T03:03:03;101252.69;;;5.69;44.61
69780;BME280;57052;55.602;38.096;2023-04-07T03:05:29;101250.22;;;5.68;44.49
69780;BME280;57052;55.602;38.096;2023-04-07T03:07:54;101252.06;;;5.67;44.38
69780;BME280;57052;55.602;38.096;2023-04-07T03:10:20;101254.16;;;5.65;44.47
69780;BME280;57052;55.602;38.096;2023-04-07T03:12:46;101255.19;;;5.64;44.75
69780;BME280;57052;55.602;38.096;2023-04-07T03:15:11;101251.06;;;5.62;44.69
69780;BME280;57052;55.602;38.096;2023-04-07T03:17:37;101257.28;;;5.56;44.71
69780;BME280;57052;55.602;38.096;2023-04-07T03:20:02;101259.75;;;5.57;44.71
69780;BME280;57052;55.602;38.096;2023-04-07T03:22:28;101264.28;;;5.57;44.66
69780;BME280;57052;55.602;38.096;2023-04-07T03:24:54;101260.16;;;5.54;44.90
69780;BME280;57052;55.602;38.096;2023-04-07T03:27:19;101262.03;;;5.54;44.82
69780;BME280;57052;55.602;38.096;2023-04-07T03:29:45;101261.00;;;5.55;44.81
69780;BME280;57052;55.602;38.096;2023-04-07T03:32:11;101252.34;;;5.46;45.42
69780;BME280;57052;55.602;38.096;2023-04-07T03:34:37;101267.63;;;5.52;45.07
69780;BME280;57052;55.602;38.096;2023-04-07T03:37:02;101265.34;;;5.49;45.30
69780;BME280;57052;55.602;38.096;2023-04-07T03:39:28;101275.06;;;5.50;45.41
69780;BME280;57052;55.602;38.096;2023-04-07T03:41:53;101275.91;;;5.51;45.32
69780;BME280;57052;55.602;38.096;2023-04-07T03:44:20;101277.53;;;5.52;44.94
69780;BME280;57052;55.602;38.096;2023-04-07T03:46:45;101278.38;;;5.52;45.56
69780;BME280;57052;55.602;38.096;2023-04-07T03:49:13;101278.78;;;5.56;45.40
69780;BME280;57052;55.602;38.096;2023-04-07T03:51:38;101284.53;;;5.59;45.18
69780;BME280;57052;55.602;38.096;2023-04-07T03:54:04;101262.66;;;5.49;45.44
69780;BME280;57052;55.602;38.096;2023-04-07T03:56:30;101284.94;;;5.63;45.61
69780;BME280;57052;55.602;38.096;2023-04-07T03:58:56;101268.84;;;5.56;45.20
69780;BME280;57052;55.602;38.096;2023-04-07T04:01:21;101271.09;;;5.59;45.24
69780;BME280;57052;55.602;38.096;2023-04-07T04:03:48;101276.66;;;5.71;45.42
69780;BME280;57052;55.602;38.096;2023-04-07T04:06:14;101276.03;;;5.69;45.50
69780;BME280;57052;55.602;38.096;2023-04-07T04:08:39;101286.97;;;5.74;45.33
69780;BME280;57052;55.602;38.096;2023-04-07T04:11:05;101279.94;;;5.73;45.58
69780;BME280;57052;55.602;38.096;2023-04-07T04:13:30;101286.53;;;5.77;45.39
69780;BME280;57052;55.602;38.096;2023-04-07T04:15:56;101283.84;;;5.77;45.65
69780;BME280;57052;55.602;38.096;2023-04-07T04:18:22;101295.22;;;5.86;45.36
69780;BME280;57052;55.602;38.096;2023-04-07T04:20:47;101282.19;;;5.89;45.48
69780;BME280;57052;55.602;38.096;2023-04-07T04:23:14;101293.13;;;5.94;45.14
69780;BME280;57052;55.602;38.096;2023-04-07T04:25:39;101285.28;;;5.93;44.55
69780;BME280;57052;55.602;38.096;2023-04-07T04:28:05;101289.34;;;6.02;44.80
69780;BME280;57052;55.602;38.096;2023-04-07T04:30:31;101284.41;;;6.05;45.06
69780;BME280;57052;55.602;38.096;2023-04-07T04:32:57;101281.72;;;6.05;45.22
69780;BME280;57052;55.602;38.096;2023-04-07T04:35:22;101294.69;;;6.15;44.70
69780;BME280;57052;55.602;38.096;2023-04-07T04:37:48;101289.72;;;6.18;45.26
69780;BME280;57052;55.602;38.096;2023-04-07T04:40:13;101289.06;;;6.23;44.98
69780;BME280;57052;55.602;38.096;2023-04-07T04:42:39;101295.22;;;6.30;44.77
69780;BME280;57052;55.602;38.096;2023-04-07T04:45:06;101297.25;;;6.34;44.63
69780;BME280;57052;55.602;38.096;2023-04-07T04:47:31;101304.47;;;6.40;44.85
69780;BME280;57052;55.602;38.096;2023-04-07T04:49:57;101287.50;;;6.40;44.93
69780;BME280;57052;55.602;38.096;2023-04-07T04:52:23;101308.13;;;6.53;44.88
69780;BME280;57052;55.602;38.096;2023-04-07T04:54:48;101298.56;;;6.57;44.72
69780;BME280;57052;55.602;38.096;2023-04-07T04:57:14;101306.38;;;6.65;44.62
69780;BME280;57052;55.602;38.096;2023-04-07T04:59:40;101304.69;;;6.70;44.55
69780;BME280;57052;55.602;38.096;2023-04-07T05:02:06;101305.69;;;6.76;44.10
69780;BME280;57052;55.602;38.096;2023-04-07T05:04:32;101305.63;;;6.82;44.24
69780;BME280;57052;55.602;38.096;2023-04-07T05:06:58;101313.63;;;6.89;44.42
69780;BME280;57052;55.602;38.096;2023-04-07T05:09:23;101301.19;;;6.94;44.29
69780;BME280;57052;55.602;38.096;2023-04-07T05:11:49;101311.69;;;7.02;44.37
69780;BME280;57052;55.602;38.096;2023-04-07T05:14:15;101318.88;;;7.08;43.75
69780;BME280;57052;55.602;38.096;2023-04-07T05:16:40;101314.28;;;7.16;44.38
69780;BME280;57052;55.602;38.096;2023-04-07T05:19:06;101316.06;;;7.22;43.96
69780;BME280;57052;55.602;38.096;2023-04-07T05:21:31;101320.34;;;7.29;44.35
69780;BME280;57052;55.602;38.096;2023-04-07T05:23:57;101310.56;;;7.35;43.43
69780;BME280;57052;55.602;38.096;2023-04-07T05:26:22;101324.78;;;7.42;43.19
69780;BME280;57052;55.602;38.096;2023-04-07T05:28:48;101324.75;;;7.48;43.66
69780;BME280;57052;55.602;38.096;2023-04-07T05:31:13;101315.59;;;7.49;43.33
69780;BME280;57052;55.602;38.096;2023-04-07T05:33:39;101320.25;;;7.60;43.38
69780;BME280;57052;55.602;38.096;2023-04-07T05:36:05;101318.97;;;7.63;43.48
69780;BME280;57052;55.602;38.096;2023-04-07T05:38:31;101311.66;;;7.70;43.29
69780;BME280;57052;55.602;38.096;2023-04-07T05:40:56;101318.84;;;7.76;43.16
69780;BME280;57052;55.602;38.096;2023-04-07T05:43:22;101323.31;;;7.82;42.99
69780;BME280;57052;55.602;38.096;2023-04-07T05:45:47;101324.06;;;7.89;43.72
69780;BME280;57052;55.602;38.096;2023-04-07T05:48:13;101326.69;;;7.96;42.47
69780;BME280;57052;55.602;38.096;2023-04-07T05:50:38;101326.03;;;8.00;43.06
69780;BME280;57052;55.602;38.096;2023-04-07T05:53:04;101324.88;;;8.08;42.59
69780;BME280;57052;55.602;38.096;2023-04-07T05:55:30;101327.72;;;8.13;42.58
69780;BME280;57052;55.602;38.096;2023-04-07T05:57:55;101323.31;;;8.18;42.70
69780;BME280;57052;55.602;38.096;2023-04-07T06:00:21;101329.44;;;8.25;42.34
69780;BME280;57052;55.602;38.096;2023-04-07T06:02:47;101315.75;;;8.27;42.15
69780;BME280;57052;55.602;38.096;2023-04-07T06:05:12;101332.00;;;8.38;41.99
69780;BME280;57052;55.602;38.096;2023-04-07T06:07:38;101324.88;;;8.44;41.95
69780;BME280;57052;55.602;38.096;2023-04-07T06:10:04;101321.81;;;8.52;42.00
69780;BME280;57052;55.602;38.096;2023-04-07T06:12:29;101321.97;;;8.57;41.48
69780;BME280;57052;55.602;38.096;2023-04-07T06:14:55;101321.88;;;8.64;41.82
69780;BME280;57052;55.602;38.096;2023-04-07T06:17:21;101326.94;;;8.72;41.67
69780;BME280;57052;55.602;38.096;2023-04-07T06:19:47;101327.69;;;8.79;41.15
69780;BME280;57052;55.602;38.096;2023-04-07T06:22:13;101324.28;;;8.83;40.85
69780;BME280;57052;55.602;38.096;2023-04-07T06:24:39;101316.78;;;8.85;41.63
69780;BME280;57052;55.602;38.096;2023-04-07T06:27:04;101320.63;;;8.89;40.68
69780;BME280;57052;55.602;38.096;2023-04-07T06:29:33;101319.03;;;9.00;41.25
69780;BME280;57052;55.602;38.096;2023-04-07T06:31:59;101324.91;;;9.09;40.69
69780;BME280;57052;55.602;38.096;2023-04-07T06:34:25;101334.56;;;9.16;41.28
69780;BME280;57052;55.602;38.096;2023-04-07T06:36:51;101330.31;;;9.20;40.97
69780;BME280;57052;55.602;38.096;2023-04-07T06:39:17;101332.69;;;9.28;40.90
69780;BME280;57052;55.602;38.096;2023-04-07T06:41:42;101322.13;;;9.27;41.29
69780;BME280;57052;55.602;38.096;2023-04-07T06:44:09;101332.22;;;9.43;40.94
69780;BME280;57052;55.602;38.096;2023-04-07T06:46:37;101341.84;;;9.50;40.60
69780;BME280;57052;55.602;38.096;2023-04-07T06:49:03;101337.97;;;9.58;40.64
69780;BME280;57052;55.602;38.096;2023-04-07T06:51:29;101320.72;;;9.59;40.15
69780;BME280;57052;55.602;38.096;2023-04-07T06:53:56;101326.56;;;9.67;40.27
69780;BME280;57052;55.602;38.096;2023-04-07T06:56:22;101338.44;;;9.78;40.16
69780;BME280;57052;55.602;38.096;2023-04-07T06:58:48;101337.81;;;9.88;39.89
69780;BME280;57052;55.602;38.096;2023-04-07T07:01:14;101321.84;;;9.86;40.06
69780;BME280;57052;55.602;38.096;2023-04-07T07:03:40;101326.38;;;9.97;39.60
69780;BME280;57052;55.602;38.096;2023-04-07T07:06:05;101324.03;;;10.01;39.53
69780;BME280;57052;55.602;38.096;2023-04-07T07:08:31;101325.44;;;10.15;39.54
69780;BME280;57052;55.602;38.096;2023-04-07T07:10:57;101329.31;;;10.19;39.63
69780;BME280;57052;55.602;38.096;2023-04-07T07:13:24;101330.09;;;10.31;38.94
69780;BME280;57052;55.602;38.096;2023-04-07T07:15:53;101335.94;;;10.40;39.31
69780;BME280;57052;55.602;38.096;2023-04-07T07:18:19;101313.47;;;10.39;39.17
69780;BME280;57052;55.602;38.096;2023-04-07T07:20:45;101327.31;;;10.54;38.79
69780;BME280;57052;55.602;38.096;2023-04-07T07:23:10;101325.50;;;10.60;38.52
69780;BME280;57052;55.602;38.096;2023-04-07T07:25:36;101292.81;;;10.50;38.51
69780;BME280;57052;55.602;38.096;2023-04-07T07:28:02;101320.25;;;10.70;38.20
69780;BME280;57052;55.602;38.096;2023-04-07T07:30:27;101330.78;;;10.83;38.31
69780;BME280;57052;55.602;38.096;2023-04-07T07:32:53;101320.31;;;10.86;37.89
69780;BME280;57052;55.602;38.096;2023-04-07T07:35:19;101332.94;;;10.98;37.63
69780;BME280;57052;55.602;38.096;2023-04-07T07:37:45;101328.44;;;11.03;37.78
69780;BME280;57052;55.602;38.096;2023-04-07T07:40:11;101317.84;;;11.02;37.30
69780;BME280;57052;55.602;38.096;2023-04-07T07:42:37;101320.72;;;11.12;37.14
69780;BME280;57052;55.602;38.096;2023-04-07T07:45:03;101315.41;;;11.17;36.97
69780;BME280;57052;55.602;38.096;2023-04-07T07:47:29;101306.44;;;11.16;36.74
69780;BME280;57052;55.602;38.096;2023-04-07T07:49:55;101316.88;;;11.24;36.67
69780;BME280;57052;55.602;38.096;2023-04-07T07:52:21;101316.44;;;11.32;36.33
69780;BME280;57052;55.602;38.096;2023-04-07T07:54:50;101312.75;;;11.38;36.52
69780;BME280;57052;55.602;38.096;2023-04-07T07:57:16;101331.94;;;11.53;36.62
69780;BME280;57052;55.602;38.096;2023-04-07T07:59:41;101323.38;;;11.62;36.26
69780;BME280;57052;55.602;38.096;2023-04-07T08:02:08;101322.75;;;11.71;36.29
69780;BME280;57052;55.602;38.096;2023-04-07T08:04:35;101301.88;;;11.72;36.20
69780;BME280;57052;55.602;38.096;2023-04-07T08:07:02;101307.44;;;11.82;35.89
69780;BME280;57052;55.602;38.096;2023-04-07T08:09:28;101320.94;;;11.98;36.05
69780;BME280;57052;55.602;38.096;2023-04-07T08:11:54;101321.88;;;12.09;35.74
69780;BME280;57052;55.602;38.096;2023-04-07T08:14:19;101325.78;;;12.18;35.50
69780;BME280;57052;55.602;38.096;2023-04-07T08:16:45;101303.25;;;12.17;34.80
69780;BME280;57052;55.602;38.096;2023-04-07T08:19:11;101307.66;;;12.23;34.60
69780;BME280;57052;55.602;38.096;2023-04-07T08:21:38;101328.19;;;12.36;34.66
69780;BME280;57052;55.602;38.096;2023-04-07T08:24:04;101317.59;;;12.35;34.33
69780;BME280;57052;55.602;38.096;2023-04-07T08:26:30;101322.84;;;12.46;34.56
69780;BME280;57052;55.602;38.096;2023-04-07T08:28:56;101310.97;;;12.52;34.41
69780;BME280;57052;55.602;38.096;2023-04-07T08:31:22;101314.88;;;12.61;34.13
69780;BME280;57052;55.602;38.096;2023-04-07T08:33:48;101314.38;;;12.64;34.50
69780;BME280;57052;55.602;38.096;2023-04-07T08:36:19;101318.50;;;12.72;34.48
69780;BME280;57052;55.602;38.096;2023-04-07T08:38:44;101321.28;;;12.77;34.28
69780;BME280;57052;55.602;38.096;2023-04-07T08:41:12;101312.63;;;12.80;34.15
69780;BME280;57052;55.602;38.096;2023-04-07T08:43:38;101311.34;;;12.88;33.97
69780;BME280;57052;55.602;38.096;2023-04-07T08:46:05;101319.50;;;12.93;33.66
69780;BME280;57052;55.602;38.096;2023-04-07T08:48:33;101313.03;;;12.99;33.52
69780;BME280;57052;55.602;38.096;2023-04-07T08:51:03;101320.16;;;13.05;33.40
69780;BME280;57052;55.602;38.096;2023-04-07T08:53:35;101322.38;;;13.08;31.70
69780;BME280;57052;55.602;38.096;2023-04-07T08:56:03;101321.34;;;13.14;33.59
69780;BME280;57052;55.602;38.096;2023-04-07T08:58:30;101321.94;;;13.21;33.63
69780;BME280;57052;55.602;38.096;2023-04-07T09:00:56;101313.59;;;13.27;33.53
69780;BME280;57052;55.602;38.096;2023-04-07T09:03:23;101315.25;;;13.33;33.05
69780;BME280;57052;55.602;38.096;2023-04-07T09:05:51;101322.13;;;13.46;32.84
69780;BME280;57052;55.602;38.096;2023-04-07T09:08:16;101315.41;;;13.59;32.90
69780;BME280;57052;55.602;38.096;2023-04-07T09:10:42;101316.31;;;13.69;32.80
69780;BME280;57052;55.602;38.096;2023-04-07T09:13:08;101307.38;;;13.79;32.59
69780;BME280;57052;55.602;38.096;2023-04-07T09:15:34;101298.94;;;13.85;32.66
69780;BME280;57052;55.602;38.096;2023-04-07T09:18:00;101277.44;;;13.79;32.67
69780;BME280;57052;55.602;38.096;2023-04-07T09:20:25;101306.47;;;14.20;32.95
69780;BME280;57052;55.602;38.096;2023-04-07T09:22:51;101307.34;;;14.36;32.11
69780;BME280;57052;55.602;38.096;2023-04-07T09:25:21;101297.59;;;14.50;32.27
69780;BME280;57052;55.602;38.096;2023-04-07T09:28:02;101290.53;;;14.64;30.53
69780;BME280;57052;55.602;38.096;2023-04-07T09:30:29;101294.09;;;14.90;32.15
69780;BME280;57052;55.602;38.096;2023-04-07T09:32:56;101298.72;;;15.14;31.59
69780;BME280;57052;55.602;38.096;2023-04-07T09:35:23;101290.81;;;15.33;31.27
69780;BME280;57052;55.602;38.096;2023-04-07T09:38:06;101292.16;;;15.51;29.10
69780;BME280;57052;55.602;38.096;2023-04-07T09:40:32;101290.72;;;15.73;30.75
69780;BME280;57052;55.602;38.096;2023-04-07T09:42:58;101296.13;;;15.93;30.52
69780;BME280;57052;55.602;38.096;2023-04-07T09:45:25;101300.13;;;16.16;30.08
69780;BME280;57052;55.602;38.096;2023-04-07T09:47:51;101294.34;;;16.28;29.77
69780;BME280;57052;55.602;38.096;2023-04-07T09:50:38;101277.34;;;16.36;27.31
69780;BME280;57052;55.602;38.096;2023-04-07T09:53:05;101287.53;;;16.69;29.67
69780;BME280;57052;55.602;38.096;2023-04-07T09:55:32;101283.88;;;16.84;28.81
69780;BME280;57052;55.602;38.096;2023-04-07T09:57:58;101248.97;;;16.76;28.66
69780;BME280;57052;55.602;38.096;2023-04-07T10:00:24;101282.56;;;17.10;28.28
69780;BME280;57052;55.602;38.096;2023-04-07T10:02:50;101273.16;;;17.21;28.52
69780;BME280;57052;55.602;38.096;2023-04-07T10:05:17;101291.22;;;17.51;28.06
69780;BME280;57052;55.602;38.096;2023-04-07T10:07:46;101289.41;;;17.70;27.65
69780;BME280;57052;55.602;38.096;2023-04-07T10:10:12;101291.38;;;17.88;27.51
69780;BME280;57052;55.602;38.096;2023-04-07T10:12:39;101292.22;;;18.07;27.37
69780;BME280;57052;55.602;38.096;2023-04-07T10:15:06;101264.47;;;18.14;27.26
69780;BME280;57052;55.602;38.096;2023-04-07T10:17:33;101272.41;;;18.34;26.61
69780;BME280;57052;55.602;38.096;2023-04-07T10:20:00;101267.13;;;18.61;26.66
69780;BME280;57052;55.602;38.096;2023-04-07T10:22:27;101282.94;;;18.83;26.45
69780;BME280;57052;55.602;38.096;2023-04-07T10:24:59;101279.81;;;18.89;24.24
69780;BME280;57052;55.602;38.096;2023-04-07T10:27:35;101276.09;;;18.99;24.11
69780;BME280;57052;55.602;38.096;2023-04-07T10:30:06;101284.88;;;19.14;24.61
69780;BME280;57052;55.602;38.096;2023-04-07T10:32:49;101275.88;;;19.28;22.78
69780;BME280;57052;55.602;38.096;2023-04-07T10:35:16;101273.19;;;19.41;25.31
69780;BME280;57052;55.602;38.096;2023-04-07T10:40:33;101270.38;;;19.73;24.43
69780;BME280;57052;55.602;38.096;2023-04-07T10:42:59;101276.88;;;19.91;24.35
69780;BME280;57052;55.602;38.096;2023-04-07T10:48:20;101282.06;;;20.33;24.33
69780;BME280;57052;55.602;38.096;2023-04-07T10:53:34;101269.28;;;20.73;23.47
69780;BME280;57052;55.602;38.096;2023-04-07T10:56:01;101266.09;;;20.80;23.28
69780;BME280;57052;55.602;38.096;2023-04-07T11:03:22;101274.25;;;21.29;22.82
69780;BME280;57052;55.602;38.096;2023-04-07T11:05:49;101272.38;;;21.47;23.10
69780;BME280;57052;55.602;38.096;2023-04-07T11:08:26;101259.13;;;21.57;22.63
69780;BME280;57052;55.602;38.096;2023-04-07T11:10:56;101271.84;;;21.76;22.43
69780;BME280;57052;55.602;38.096;2023-04-07T11:13:21;101269.31;;;21.88;22.57
69780;BME280;57052;55.602;38.096;2023-04-07T11:15:49;101263.50;;;21.98;21.75
69780;BME280;57052;55.602;38.096;2023-04-07T11:18:23;101254.13;;;21.99;19.85
69780;BME280;57052;55.602;38.096;2023-04-07T11:20:54;101272.34;;;22.25;20.79
69780;BME280;57052;55.602;38.096;2023-04-07T11:23:21;101265.38;;;22.45;21.51
69780;BME280;57052;55.602;38.096;2023-04-07T11:25:49;101247.53;;;22.51;20.91
69780;BME280;57052;55.602;38.096;2023-04-07T11:28:15;101268.00;;;22.76;20.75
69780;BME280;57052;55.602;38.096;2023-04-07T11:30:49;101252.75;;;22.78;19.58
69780;BME280;57052;55.602;38.096;2023-04-07T11:33:20;101267.16;;;22.92;20.69
69780;BME280;57052;55.602;38.096;2023-04-07T11:36:00;101261.00;;;22.95;18.27
69780;BME280;57052;55.602;38.096;2023-04-07T11:38:28;101254.34;;;22.96;20.67
69780;BME280;57052;55.602;38.096;2023-04-07T11:40:55;101249.66;;;22.97;20.42
69780;BME280;57052;55.602;38.096;2023-04-07T11:43:26;101245.41;;;23.00;19.62
69780;BME280;57052;55.602;38.096;2023-04-07T11:46:10;101244.44;;;22.95;18.98
69780;BME280;57052;55.602;38.096;2023-04-07T11:48:38;101249.66;;;22.97;19.80
69780;BME280;57052;55.602;38.096;2023-04-07T11:51:05;101260.03;;;22.91;20.27
69780;BME280;57052;55.602;38.096;2023-04-07T11:53:32;101261.81;;;22.87;19.84
69780;BME280;57052;55.602;38.096;2023-04-07T11:56:07;101248.50;;;22.81;17.99
69780;BME280;57052;55.602;38.096;2023-04-07T11:58:37;101245.09;;;22.75;18.62
69780;BME280;57052;55.602;38.096;2023-04-07T12:01:04;101249.63;;;22.80;19.11
69780;BME280;57052;55.602;38.096;2023-04-07T12:03:36;101260.84;;;22.75;18.98
69780;BME280;57052;55.602;38.096;2023-04-07T12:06:03;101252.59;;;22.66;19.83
69780;BME280;57052;55.602;38.096;2023-04-07T12:08:40;101249.13;;;22.52;17.46
69780;BME280;57052;55.602;38.096;2023-04-07T12:11:06;101252.72;;;22.44;19.87
69780;BME280;57052;55.602;38.096;2023-04-07T12:13:33;101249.81;;;22.32;19.76
69780;BME280;57052;55.602;38.096;2023-04-07T12:15:59;101254.97;;;22.25;20.09
69780;BME280;57052;55.602;38.096;2023-04-07T12:18:25;101252.34;;;22.20;20.11
69780;BME280;57052;55.602;38.096;2023-04-07T12:20:52;101248.63;;;22.16;19.86
69780;BME280;57052;55.602;38.096;2023-04-07T12:23:18;101250.88;;;22.05;19.96
69780;BME280;57052;55.602;38.096;2023-04-07T12:25:43;101258.66;;;22.03;20.15
69780;BME280;57052;55.602;38.096;2023-04-07T12:28:09;101254.28;;;21.94;20.14
69780;BME280;57052;55.602;38.096;2023-04-07T12:30:35;101249.31;;;21.82;19.99
69780;BME280;57052;55.602;38.096;2023-04-07T12:33:01;101252.06;;;21.73;19.96
69780;BME280;57052;55.602;38.096;2023-04-07T12:35:28;101252.00;;;21.56;19.99
69780;BME280;57052;55.602;38.096;2023-04-07T12:37:54;101256.00;;;21.42;20.28
69780;BME280;57052;55.602;38.096;2023-04-07T12:40:24;101258.50;;;21.30;19.66
69780;BME280;57052;55.602;38.096;2023-04-07T12:42:50;101250.84;;;21.18;20.48
69780;BME280;57052;55.602;38.096;2023-04-07T12:45:16;101252.09;;;21.12;20.80
69780;BME280;57052;55.602;38.096;2023-04-07T12:47:43;101252.53;;;21.05;20.80
69780;BME280;57052;55.602;38.096;2023-04-07T12:50:09;101237.88;;;20.96;20.69
69780;BME280;57052;55.602;38.096;2023-04-07T12:52:35;101252.31;;;21.02;20.64
69780;BME280;57052;55.602;38.096;2023-04-07T12:55:01;101242.44;;;21.01;20.80
69780;BME280;57052;55.602;38.096;2023-04-07T12:57:28;101246.03;;;21.01;20.85
69780;BME280;57052;55.602;38.096;2023-04-07T12:59:53;101238.69;;;20.97;20.57
69780;BME280;57052;55.602;38.096;2023-04-07T13:02:19;101240.94;;;20.95;20.54
69780;BME280;57052;55.602;38.096;2023-04-07T13:04:45;101235.88;;;20.88;20.52
69780;BME280;57052;55.602;38.096;2023-04-07T13:07:12;101236.88;;;20.92;20.71
69780;BME280;57052;55.602;38.096;2023-04-07T13:09:38;101245.94;;;20.93;20.70